Terminal Aerodrome Forecast
Issued by NWS

Home | Current Version | Previous Version | Text Only | Print | Product List | Glossary On
Versions: 1 2 3 4 5 6 7 8 9 10 11 12 13 14 15 16 17 18 19 20 21 22 23 24 25 26 27 28 29 30 31 32 33 34 35 36
000
FTUS42 KRAH 271555 AAB
TAFINT
TAF AMD
KINT 271555Z 2716/2812 19004KT P6SM VCSH SCT018 BKN100
     FM271800 22008KT P6SM BKN040 BKN250
     FM280100 21005KT P6SM SCT050 BKN250
     FM281000 21003KT P6SM SCT007 BKN010
      TEMPO 2810/2812 4SM BR BKN007=

USA.gov is the U.S. government's official web portal to all federal, state and local government web resources and services.